Georgina Pg — 2APT9 — position and weather

sailwx.info

Track history (hours):
 
Tides and Currents Weather Stations Pressure Air Temp Water Temp Dewpoint Dewpoint Depression Visibility Wind Speed Wind Dir Waves Ship Positions

Georgina Pg

Last reported at 2018-Jul-20 07:20 UTC. Time now 2018-Jul-23 00:16 UTC.
Position N 17°07' W 063°27'.

Length 127 m; draft 6.9 m.

Type: Ship (hazmat cat A). MMSI: 235061952.

Date/timePositionNaut miles runAvg speedWind from/ knotsBaromVisibWave heightAir tempDewpointWater temp
2018-Jul-20 07:20N 17°07' W 063°27'2911.7
2018-Jul-20 04:54N 17°26' W 063°05'511.8
2018-Jul-20 04:29N 17°29' W 063°01'1 2.3
2018-Jul-20 04:00N 17°30' W 063°00'0 0.0
2018-Jul-20 03:30N 17°30' W 063°00'0 0.0
2018-Jul-19 03:18N 17°30' W 063°00'11 5.1
2018-Jul-19 01:10N 17°27' W 062°49'  
2018-Jul-15 00:52N 17°27' W 062°47'1212.1
2018-Jul-14 23:54N 17°27' W 062°59'2 5.0
2018-Jul-14 23:24N 17°29' W 063°00'0 0.0
2018-Jul-14 21:51N 17°29' W 063°00'0 0.0
2018-Jul-14 19:33N 17°29' W 063°00'0 0.0
2018-Jul-14 19:24N 17°29' W 063°00'0 0.0
2018-Jul-14 15:12N 17°29' W 063°00'1 0.1
2018-Jul-13 22:39N 17°30' W 063°00'0 0.0
2018-Jul-13 22:21N 17°30' W 063°00'0 0.0
2018-Jul-13 21:51N 17°30' W 063°00'0 0.0
2018-Jul-13 21:21N 17°30' W 063°00'0 0.0
2018-Jul-13 21:00N 17°30' W 063°00'0 0.0
2018-Jul-13 20:29N 17°30' W 063°00'0 0.0
2018-Jul-13 19:57N 17°30' W 063°00'0 0.0
2018-Jul-13 19:26N 17°30' W 063°00'0 0.0
2018-Jul-13 18:59N 17°30' W 063°00'0 0.0
2018-Jul-13 18:22N 17°30' W 063°00'0 0.0
2018-Jul-13 17:56N 17°30' W 063°00'0 0.0
2018-Jul-13 17:29N 17°30' W 063°00'0 0.0
2018-Jul-13 16:58N 17°30' W 063°00'0 0.0
2018-Jul-13 16:30N 17°30' W 063°00'0 0.0
2018-Jul-13 15:53N 17°30' W 063°00'0 0.0
2018-Jul-13 15:29N 17°30' W 063°00'0 0.0
2018-Jul-13 15:00N 17°30' W 063°00'0 0.0
2018-Jul-13 14:00N 17°30' W 063°00'0 0.0
2018-Jul-13 13:28N 17°30' W 063°00'0 0.0
2018-Jul-13 12:59N 17°30' W 063°00'0 0.0
2018-Jul-13 12:26N 17°30' W 063°00'0 0.6
2018-Jul-13 11:57N 17°30' W 063°01'1 2.5
2018-Jul-13 11:30N 17°30' W 063°02'1 0.8
2018-Jul-13 10:41N 17°30' W 063°02'0 1.2
2018-Jul-13 10:29N 17°30' W 063°02'13 1.4
2018-Jul-13 01:05N 17°18' W 062°56'0 0.8
2018-Jul-13 00:46N 17°18' W 062°55'0 0.9
2018-Jul-13 00:19N 17°18' W 062°55'0 0.8
2018-Jul-13 00:00N 17°18' W 062°55'0 0.1
2018-Jul-12 18:14N 17°18' W 062°56'0 1.3
2018-Jul-12 18:00N 17°18' W 062°55'5 9.0
2018-Jul-12 17:23N 17°23' W 062°58'  
Track history (hours):
 
Tides and Currents Weather Stations Pressure Air Temp Water Temp Dewpoint Dewpoint Depression Visibility Wind Speed Wind Dir Waves Ship Positions

Georgina Pg

Last reported at 2018-Jul-20 07:20 UTC. Time now 2018-Jul-23 00:16 UTC.
Position N 17°07' W 063°27'.

Length 127 m; draft 6.9 m.

Type: Ship (hazmat cat A). MMSI: 235061952.

Date/timePositionNaut miles runAvg speedWind from/ knotsBaromVisibWave heightAir tempDewpointWater temp
2018-Jul-20 07:20N 17°07' W 063°27'2911.7
2018-Jul-20 04:54N 17°26' W 063°05'511.8
2018-Jul-20 04:29N 17°29' W 063°01'1 2.3
2018-Jul-20 04:00N 17°30' W 063°00'0 0.0
2018-Jul-20 03:30N 17°30' W 063°00'0 0.0
2018-Jul-19 03:18N 17°30' W 063°00'11 5.1
2018-Jul-19 01:10N 17°27' W 062°49'  
2018-Jul-15 00:52N 17°27' W 062°47'1212.1
2018-Jul-14 23:54N 17°27' W 062°59'2 5.0
2018-Jul-14 23:24N 17°29' W 063°00'0 0.0
2018-Jul-14 21:51N 17°29' W 063°00'0 0.0
2018-Jul-14 19:33N 17°29' W 063°00'0 0.0
2018-Jul-14 19:24N 17°29' W 063°00'0 0.0
2018-Jul-14 15:12N 17°29' W 063°00'1 0.1
2018-Jul-13 22:39N 17°30' W 063°00'0 0.0
2018-Jul-13 22:21N 17°30' W 063°00'0 0.0
2018-Jul-13 21:51N 17°30' W 063°00'0 0.0
2018-Jul-13 21:21N 17°30' W 063°00'0 0.0
2018-Jul-13 21:00N 17°30' W 063°00'0 0.0
2018-Jul-13 20:29N 17°30' W 063°00'0 0.0
2018-Jul-13 19:57N 17°30' W 063°00'0 0.0
2018-Jul-13 19:26N 17°30' W 063°00'0 0.0
2018-Jul-13 18:59N 17°30' W 063°00'0 0.0
2018-Jul-13 18:22N 17°30' W 063°00'0 0.0
2018-Jul-13 17:56N 17°30' W 063°00'0 0.0
2018-Jul-13 17:29N 17°30' W 063°00'0 0.0
2018-Jul-13 16:58N 17°30' W 063°00'0 0.0
2018-Jul-13 16:30N 17°30' W 063°00'0 0.0
2018-Jul-13 15:53N 17°30' W 063°00'0 0.0
2018-Jul-13 15:29N 17°30' W 063°00'0 0.0
2018-Jul-13 15:00N 17°30' W 063°00'0 0.0
2018-Jul-13 14:00N 17°30' W 063°00'0 0.0
2018-Jul-13 13:28N 17°30' W 063°00'0 0.0
2018-Jul-13 12:59N 17°30' W 063°00'0 0.0
2018-Jul-13 12:26N 17°30' W 063°00'0 0.6
2018-Jul-13 11:57N 17°30' W 063°01'1 2.5
2018-Jul-13 11:30N 17°30' W 063°02'1 0.8
2018-Jul-13 10:41N 17°30' W 063°02'0 1.2
2018-Jul-13 10:29N 17°30' W 063°02'13 1.4
2018-Jul-13 01:05N 17°18' W 062°56'0 0.8
2018-Jul-13 00:46N 17°18' W 062°55'0 0.9
2018-Jul-13 00:19N 17°18' W 062°55'0 0.8
2018-Jul-13 00:00N 17°18' W 062°55'0 0.1
2018-Jul-12 18:14N 17°18' W 062°56'0 1.3
2018-Jul-12 18:00N 17°18' W 062°55'5 9.0
2018-Jul-12 17:23N 17°23' W 062°58'  

Dump ship's entire track history